Latest Weather Observations for Tennant Creek

IDD60801

Issued at 9:31 am CST Thursday 23 February 2017 (issued every 30 minutes, with the page automatically refreshed every 10 minutes)

About weather observations | Map of weather stations | Latest weather observations for NT | Other Formats
Station Details ID: 015135 Name: TENNANT CREEK AIRPORT Lat: -19.64 Lon: 134.18 Height: 375.7 m
Data from the previous 72 hours. | See also: Recent months at Tennant Creek
Date/Time
CST
Temp
°C
App
Temp
°C
Dew
Point
°C
Rel
Hum
%
Delta-T
°C
Wind Press
QNH
hPa
Press
MSL
hPa
Rain since
9am
mm
Dir  Spd
km/h
Gust
km/h
Spd
kts
Gust
kts
23/09:30am 28.2 27.7 19.9 60 5.5 ENE 22 32 12 17 1015.0 - 0.0
23/09:00am 27.5 26.0 20.3 65 4.8 ENE 28 35 15 19 1014.7 1011.8 0.0
23/08:30am 26.4 25.8 20.5 70 3.9 E 24 32 13 17 1014.4 - 0.0
23/08:00am 25.5 24.7 20.8 75 3.1 E 26 35 14 19 1013.9 - 0.0
23/07:30am 24.3 25.2 21.5 84 1.9 E 19 28 10 15 1013.5 - 0.0
23/07:00am 23.1 24.9 21.1 88 1.3 E 13 17 7 9 1013.1 - 0.0
23/06:30am 22.8 24.5 21.0 89 1.2 E 13 20 7 11 1012.7 - 0.0
23/06:00am 23.1 24.8 21.0 88 1.4 ENE 13 17 7 9 1012.4 1009.4 0.0
23/05:30am 23.2 24.6 21.1 88 1.4 ENE 15 20 8 11 1012.3 - 0.0
23/05:00am 23.5 24.8 20.8 85 1.8 ENE 15 22 8 12 1012.2 - 0.0
23/04:30am 23.7 24.1 20.7 83 2.0 ENE 19 24 10 13 1011.7 - 0.0
23/04:00am 23.6 24.2 21.0 85 1.7 E 19 26 10 14 1011.3 - 0.0
23/03:30am 24.1 25.4 20.9 82 2.1 E 15 20 8 11 1011.4 - 0.0
23/03:00am 24.5 25.4 20.9 80 2.4 ENE 17 24 9 13 1011.3 1008.4 0.0
23/02:30am 25.0 26.4 21.1 79 2.6 ENE 15 22 8 12 1011.3 - 0.0
23/02:00am 25.4 26.9 21.2 77 2.8 NE 15 20 8 11 1011.3 - 0.0
23/01:30am 25.8 26.8 21.0 75 3.2 NE 17 22 9 12 1011.4 - 0.0
23/01:00am 26.5 27.0 20.8 71 3.8 NE 19 26 10 14 1011.5 - 0.0
23/12:30am 27.2 26.4 20.1 65 4.7 NE 24 33 13 18 1011.8 - 0.0
23/12:00am 28.5 27.3 18.3 54 6.6 NE 22 28 12 15 1012.0 1009.1 0.0
 
Date/Time
CST
Temp
°C
App
Temp
°C
Dew
Point
°C
Rel
Hum
%
Delta-T
°C
Wind Press
QNH
hPa
Press
MSL
hPa
Rain since
9am
mm
Dir  Spd
km/h
Gust
km/h
Spd
kts
Gust
kts
22/11:30pm 27.8 27.6 13.5 41 8.6 E 7 17 4 9 1012.2 - 0.0
22/11:00pm 30.0 28.8 11.7 32 10.8 SE 9 11 5 6 1012.0 - 0.0
22/10:30pm 28.6 25.8 12.7 37 9.5 E 19 22 10 12 1012.2 - 0.0
22/10:00pm 27.6 26.9 14.3 44 8.1 SSW 11 17 6 9 1011.6 - 0.0
22/09:30pm 29.9 29.7 13.0 35 10.2 SE 6 9 3 5 1011.5 - 0.0
22/09:00pm 30.0 30.1 14.0 37 9.8 ESE 6 7 3 4 1011.3 1008.4 0.0
22/08:30pm 30.9 30.0 11.4 30 11.5 ESE 7 9 4 5 1011.1 - 0.0
22/08:00pm 31.3 30.3 11.1 29 11.9 ESE 7 9 4 5 1010.9 - 0.0
22/07:30pm 31.9 30.3 10.3 26 12.6 ESE 9 11 5 6 1010.4 - 0.0
22/07:00pm 33.4 30.8 9.4 23 13.9 SE 13 20 7 11 1010.1 - 0.0
22/06:30pm 34.2 31.1 8.9 21 14.6 SE 15 20 8 11 1009.9 - 0.0
22/06:00pm 34.6 30.8 9.0 20 14.8 SE 19 24 10 13 1009.5 1006.5 0.0
22/05:30pm 34.8 31.1 9.4 21 14.8 SSE 19 30 10 16 1009.4 - 0.0
22/05:00pm 35.6 32.5 10.3 21 15.0 SSE 17 26 9 14 1009.1 - 0.0
22/04:30pm 35.9 31.8 8.8 19 15.7 S 20 30 11 16 1009.2 - 0.0
22/04:00pm 36.2 33.0 10.0 20 15.5 SSE 17 24 9 13 1009.4 - 0.0
22/03:30pm 35.8 31.7 8.7 19 15.7 SSE 20 33 11 18 1009.5 - 0.0
22/03:00pm 36.0 31.2 9.0 19 15.7 SSE 24 32 13 17 1009.7 1006.7 0.0
22/02:30pm 36.0 32.0 8.4 18 15.9 SSE 19 28 10 15 1009.9 - 0.0
22/02:00pm 36.0 33.1 10.9 22 15.0 ESE 17 26 9 14 1010.3 - 0.0
22/01:30pm 35.3 31.5 9.7 21 15.0 ESE 20 32 11 17 1010.7 - 0.0
22/01:00pm 34.4 31.5 12.8 27 13.2 ESE 20 35 11 19 1011.3 - 0.0
22/12:30pm 33.8 30.3 12.3 27 13.0 ESE 22 39 12 21 1011.9 - 0.0
22/12:00pm 33.6 33.4 16.7 36 10.9 ESE 13 28 7 15 1012.4 1009.4 0.0
22/11:30am 32.4 32.5 18.4 43 9.2 SE 15 24 8 13 1012.7 - 0.0
22/11:00am 31.7 31.8 18.3 45 8.8 E 15 26 8 14 1013.0 - 0.0
22/10:30am 30.6 31.9 20.1 53 7.0 E 13 24 7 13 1013.2 - 0.0
22/10:00am 29.8 31.2 20.4 57 6.3 E 13 22 7 12 1013.1 - 0.0
22/09:30am 29.0 30.4 20.3 59 5.8 ENE 13 20 7 11 1013.4 - 0.0
22/09:00am 28.4 29.8 20.3 61 5.4 E 13 22 7 12 1013.5 1010.6 0.0
22/08:30am 27.7 33.5 27.7 100 0.0 E 13 20 7 11 1013.3 - 0.0
22/08:00am 26.6 31.6 26.6 100 0.0 E 13 17 7 9 1013.1 - 0.0
22/07:30am 25.5 30.6 25.5 100 0.0 E 9 13 5 7 1012.9 - 0.0
22/07:00am 23.7 29.3 23.6 99 0.1 CALM 0 7 0 4 1012.5 - 0.0
22/06:30am 21.5 26.0 21.5 100 0.0 CALM 0 0 0 0 1012.0 - 0.0
22/06:00am 21.4 25.8 21.4 100 0.0 CALM 0 0 0 0 1011.9 1009.0 0.0
22/05:30am 21.7 25.9 21.7 100 0.0 E 2 6 1 3 1011.6 - 0.0
22/05:00am 22.0 26.3 21.9 99 0.1 E 2 9 1 5 1011.4 - 0.0
22/04:30am 22.0 26.3 22.0 100 0.0 NNE 2 9 1 5 1010.8 - 0.0
22/04:00am 21.9 26.6 21.9 100 0.0 CALM 0 0 0 0 1010.8 - 0.0
22/03:30am 22.0 26.7 22.0 100 0.0 CALM 0 0 0 0 1010.7 - 0.0
22/03:00am 22.2 26.2 22.1 99 0.1 N 4 7 2 4 1010.7 1007.8 0.0
22/02:30am 22.0 25.6 22.0 100 0.0 N 6 7 3 4 1010.8 - 0.0
22/02:00am 22.7 26.5 22.7 100 0.0 N 7 9 4 5 1010.9 - 0.0
22/01:30am 23.1 27.7 23.1 100 0.0 N 4 6 2 3 1011.4 - 0.0
22/01:00am 24.2 29.0 24.2 100 0.0 NE 6 9 3 5 1011.7 - 0.0
22/12:30am 24.6 29.5 24.6 100 0.0 E 7 9 4 5 1011.9 - 0.0
22/12:00am 25.0 28.9 24.9 99 0.1 E 13 17 7 9 1012.0 1009.1 0.0
 
Date/Time
CST
Temp
°C
App
Temp
°C
Dew
Point
°C
Rel
Hum
%
Delta-T
°C
Wind Press
QNH
hPa
Press
MSL
hPa
Rain since
9am
mm
Dir  Spd
km/h
Gust
km/h
Spd
kts
Gust
kts
21/11:30pm 26.3 32.1 26.0 98 0.2 S 7 9 4 5 1012.0 - 0.0
21/11:00pm 25.7 30.7 25.4 98 0.2 SSW 9 11 5 6 1012.3 - 0.0
21/10:30pm 25.8 31.4 25.8 100 0.0 SSW 7 9 4 5 1012.3 - 0.0
21/10:00pm 27.6 34.1 27.6 100 0.0 S 9 11 5 6 1012.3 - 0.0
21/09:30pm 29.0 36.5 29.0 100 0.0 S 9 13 5 7 1012.0 - 0.0
21/09:00pm 29.5 37.0 29.5 100 0.0 S 11 13 6 7 1011.8 1008.9 0.0
21/08:30pm 29.7 37.8 29.7 100 0.0 S 9 13 5 7 1011.6 - 0.0
21/08:00pm 30.0 37.5 30.0 100 0.0 SSE 13 20 7 11 1011.3 - 0.0
21/07:30pm 30.7 38.8 30.7 100 0.0 SSE 13 17 7 9 1011.0 - 0.0
21/07:00pm 31.6 41.2 31.6 100 0.0 SSE 9 17 5 9 1010.6 - 0.0
21/06:30pm 32.8 42.0 32.8 100 0.0 SE 17 26 9 14 1010.3 - 0.0
21/06:00pm 33.4 42.7 33.3 99 0.1 SE 19 30 10 16 1010.0 1007.0 0.0
21/05:30pm 34.0 42.0 31.0 84 2.3 SSE 15 22 8 12 1009.9 - 0.0
21/05:00pm 34.4 33.5 16.8 35 11.4 SSE 17 24 9 13 1009.9 - 0.0
21/04:30pm 34.2 31.0 6.8 18 15.3 ESE 13 24 7 13 1009.9 - 0.0
21/04:00pm 34.5 29.5 4.7 15 16.1 SSE 20 30 11 16 1010.0 - 0.0
21/03:30pm 34.3 27.6 3.6 14 16.3 SSE 28 33 15 18 1010.1 - 0.0
21/03:00pm 34.1 29.6 2.3 13 16.5 ESE 15 30 8 16 1010.3 1007.3 0.0
21/02:30pm 34.0 28.5 2.1 13 16.5 SE 20 33 11 18 1010.8 - 0.0
21/02:00pm 33.9 29.0 2.2 13 16.4 ESE 17 28 9 15 1011.5 - 0.0
21/01:30pm 33.8 28.4 1.5 13 16.5 ESE 19 32 10 17 1012.2 - 0.0
21/01:00pm 33.4 27.8 1.4 13 16.3 SE 20 28 11 15 1012.7 - 0.0
21/12:30pm 32.4 26.4 0.9 13 15.8 E 22 35 12 19 1013.1 - 0.0
21/12:00pm 31.8 25.1 1.5 14 15.3 ESE 26 39 14 21 1013.6 1010.7 0.0
21/11:30am 31.1 24.4 1.4 15 14.9 ESE 26 39 14 21 1013.9 - 0.0
21/11:00am 30.9 24.5 3.2 17 14.3 E 26 39 14 21 1014.2 - 0.0
21/10:30am 29.7 22.5 2.8 18 13.7 E 30 43 16 23 1014.4 - 0.0
21/10:00am 29.2 22.1 1.3 16 13.8 E 28 39 15 21 1014.6 - 0.0
21/09:49am 29.0 21.8 0.8 16 13.8 E 28 46 15 25 1014.6 - 0.0
21/09:30am 28.8 21.9 -0.1 15 13.9 ESE 26 39 14 21 1014.7 - 0.0
21/09:00am 27.4 21.7 0.7 17 12.9 ESE 20 28 11 15 1014.4 1011.5 0.0
21/08:30am 26.1 20.0 0.6 19 12.2 ESE 22 39 12 21 1014.3 - 0.0
21/08:00am 24.5 18.4 0.6 20 11.3 E 22 30 12 16 1014.1 - 0.0
21/07:30am 22.8 17.8 1.5 24 10.1 ESE 17 24 9 13 1013.8 - 0.0
21/07:00am 21.5 17.2 0.8 25 9.6 ESE 13 22 7 12 1013.4 - 0.0
21/06:30am 20.8 16.5 1.2 27 9.1 ESE 13 17 7 9 1013.3 - 0.0
21/06:00am 20.9 17.1 1.8 28 9.0 ESE 11 17 6 9 1012.9 1009.9 0.0
21/05:30am 20.3 17.2 3.6 33 8.1 E 9 13 5 7 1012.7 - 0.0
21/05:00am 21.9 17.7 1.9 26 9.5 SE 13 22 7 12 1012.3 - 0.0
21/04:30am 21.3 18.0 4.7 33 8.3 SE 11 15 6 8 1012.0 - 0.0
21/04:00am 22.4 18.7 4.4 31 9.0 ESE 13 17 7 9 1011.9 - 0.0
21/03:30am 20.9 19.1 8.1 43 6.8 ESE 7 9 4 5 1011.7 - 0.0
21/03:00am 21.4 19.1 7.6 41 7.3 SE 9 11 5 6 1011.9 1009.0 0.0
21/02:30am 22.6 19.3 6.5 35 8.4 SSE 13 17 7 9 1012.0 - 0.0
21/02:00am 22.4 19.9 6.7 36 8.2 SE 9 13 5 7 1012.0 - 0.0
21/01:30am 21.7 20.0 8.2 42 7.2 SE 7 9 4 5 1012.2 - 0.0
21/01:00am 21.6 20.3 9.3 45 6.7 ESE 6 9 3 5 1012.3 - 0.0
21/12:30am 21.9 20.1 9.5 45 6.8 SE 9 11 5 6 1012.3 - 0.0
21/12:00am 22.5 21.3 9.4 43 7.2 E 6 7 3 4 1012.5 1009.5 0.0
 
Date/Time
CST
Temp
°C
App
Temp
°C
Dew
Point
°C
Rel
Hum
%
Delta-T
°C
Wind Press
QNH
hPa
Press
MSL
hPa
Rain since
9am
mm
Dir  Spd
km/h
Gust
km/h
Spd
kts
Gust
kts
20/11:30pm 22.7 21.4 9.2 42 7.4 ESE 6 7 3 4 1012.6 - 0.0
20/11:00pm 22.7 21.8 10.6 46 6.8 E 6 7 3 4 1012.6 - 0.0
20/10:30pm 23.5 22.6 10.7 44 7.2 E 6 7 3 4 1012.6 - 0.0
20/10:00pm 23.8 23.0 11.2 45 7.2 E 6 7 3 4 1012.5 - 0.0
20/09:30pm 24.3 23.9 12.5 47 6.9 E 6 7 3 4 1012.3 - 0.0
20/09:00pm 25.3 24.2 10.0 38 8.6 E 6 7 3 4 1011.9 1009.0 0.0
20/08:30pm 26.0 23.8 7.8 31 9.9 E 9 11 5 6 1011.6 - 0.0
20/08:00pm 26.4 24.0 7.1 29 10.4 E 9 11 5 6 1011.5 - 0.0
20/07:30pm 27.7 24.7 6.1 25 11.5 E 11 17 6 9 1011.0 - 0.0
20/07:00pm 29.0 25.1 5.5 22 12.5 E 15 24 8 13 1010.5 - 0.0
20/06:30pm 30.3 25.5 4.8 20 13.5 ENE 19 24 10 13 1010.3 - 0.0
20/06:00pm 31.0 25.6 4.5 18 14.0 E 22 30 12 16 1010.0 1007.0 0.0
20/05:30pm 31.6 26.6 4.8 18 14.3 E 20 28 11 15 1009.5 - 0.0
20/05:00pm 32.7 27.7 3.6 16 15.3 E 19 28 10 15 1009.4 - 0.0
20/04:30pm 32.4 27.3 3.0 15 15.3 ESE 19 30 10 16 1009.4 - 0.0
20/04:00pm 32.4 27.3 3.0 15 15.3 SE 19 32 10 17 1009.5 - 0.0
20/03:30pm 32.6 28.0 3.8 16 15.2 ESE 17 28 9 15 1009.6 - 0.0
20/03:00pm 32.0 27.0 3.5 16 14.9 SE 19 32 10 17 1009.9 1006.9 0.0
20/02:30pm 32.0 27.4 3.5 16 14.9 ESE 17 30 9 16 1010.4 - 0.0
20/02:00pm 32.0 27.0 3.5 16 14.9 ESE 19 32 10 17 1010.8 - 0.0
20/01:30pm 31.2 26.4 2.5 16 14.7 ESE 17 33 9 18 1011.3 - 0.0
20/01:00pm 30.4 25.1 2.1 16 14.3 ESE 19 28 10 15 1012.0 - 0.0
20/12:30pm 29.4 23.1 1.8 17 13.8 E 24 41 13 22 1012.4 - 0.0
20/12:00pm 28.9 22.3 2.2 18 13.4 E 26 39 14 21 1012.9 1009.9 0.0
20/11:30am 28.6 22.0 1.9 18 13.3 ESE 26 43 14 23 1013.1 - 0.0
20/11:00am 28.4 21.8 1.8 18 13.2 ESE 26 33 14 18 1013.3 - 0.0
20/10:30am 27.2 19.2 0.7 18 12.8 ESE 32 43 17 23 1013.6 - 0.0
20/10:00am 26.3 18.3 0.6 18 12.3 ESE 32 46 17 25 1014.0 - 0.0

Other Formats:

Comma delimited format used in spreadsheet applications
http://www.bom.gov.au/fwo/IDD60801/IDD60801.94238.axf

JavaScript Object Notation format (JSON) in row-major order
http://www.bom.gov.au/fwo/IDD60801/IDD60801.94238.json